createdAt,value
2022-07-27T00:00:55.553Z,8.90
2022-07-27T00:03:47.604Z,9.50
2022-07-27T00:06:23.568Z,8.90
2022-07-27T00:09:08.730Z,8.90
2022-07-27T00:11:56.490Z,8.60
2022-07-27T00:15:10.457Z,9.30
2022-07-27T00:18:07.076Z,9.50
2022-07-27T00:21:16.682Z,8.80
2022-07-27T00:24:10.602Z,8.90
2022-07-27T00:26:57.268Z,8.50
2022-07-27T00:29:35.279Z,9.30
2022-07-27T00:32:13.452Z,9.40
2022-07-27T00:35:02.445Z,8.30
2022-07-27T00:38:01.365Z,7.50
2022-07-27T00:40:59.538Z,7.00
2022-07-27T00:43:51.368Z,6.40
2022-07-27T00:46:24.983Z,5.90
2022-07-27T00:49:15.645Z,5.40
2022-07-27T00:55:07.197Z,5.50
2022-07-27T00:57:53.153Z,4.90
2022-07-27T01:00:50.184Z,4.40
2022-07-27T01:03:29.686Z,4.80
2022-07-27T01:06:27.092Z,5.00
2022-07-27T01:09:23.661Z,4.60
2022-07-27T01:12:16.696Z,4.60
2022-07-27T01:14:55.917Z,5.30
2022-07-27T01:18:27.663Z,5.20
2022-07-27T01:21:15.353Z,4.90
2022-07-27T01:24:21.394Z,4.40
2022-07-27T01:27:23.860Z,4.80
2022-07-27T01:33:37.147Z,4.70
2022-07-27T01:36:31.529Z,4.10
2022-07-27T01:39:17.621Z,4.50
2022-07-27T01:42:20.130Z,4.60
2022-07-27T01:45:21.921Z,4.10
2022-07-27T01:48:05.071Z,3.70
2022-07-27T01:50:47.904Z,4.00
2022-07-27T01:53:34.690Z,4.40
2022-07-27T01:56:21.213Z,4.20
2022-07-27T01:59:16.080Z,4.20
2022-07-27T02:02:22.621Z,3.70
2022-07-27T02:05:13.903Z,3.60
2022-07-27T02:07:59.998Z,4.00
2022-07-27T02:10:58.162Z,4.10
2022-07-27T02:13:56.499Z,3.90
2022-07-27T02:16:42.503Z,3.60
2022-07-27T02:19:50.969Z,3.50
2022-07-27T02:22:47.940Z,3.80
2022-07-27T02:25:40.539Z,3.20
2022-07-27T02:28:24.500Z,3.20
2022-07-27T02:31:19.229Z,3.70
2022-07-27T02:34:17.668Z,3.40
2022-07-27T02:37:25.975Z,3.40
2022-07-27T02:40:12.942Z,3.50
2022-07-27T02:43:03.062Z,3.60
2022-07-27T02:46:03.425Z,3.60
2022-07-27T02:48:55.805Z,3.30
2022-07-27T02:51:51.691Z,3.20
2022-07-27T02:54:45.444Z,3.00
2022-07-27T02:57:35.990Z,3.20
2022-07-27T03:03:17.139Z,2.50
2022-07-27T03:06:23.003Z,3.10
2022-07-27T03:09:11.694Z,2.90
2022-07-27T03:11:42.570Z,2.80
2022-07-27T03:14:23.330Z,2.50
2022-07-27T03:17:13.055Z,2.90
2022-07-27T03:20:17.316Z,2.90
2022-07-27T03:22:54.336Z,3.10
2022-07-27T03:25:58.161Z,2.70
2022-07-27T03:28:40.856Z,2.60
2022-07-27T03:31:31.615Z,2.60
2022-07-27T03:34:41.025Z,2.80
2022-07-27T03:37:19.917Z,2.80
2022-07-27T03:40:33.573Z,3.00
2022-07-27T03:43:16.886Z,2.50
2022-07-27T03:45:56.612Z,2.80
2022-07-27T03:48:36.741Z,2.60
2022-07-27T03:51:21.773Z,2.90
2022-07-27T03:54:17.071Z,2.30
2022-07-27T03:57:02.403Z,2.40
2022-07-27T03:59:50.945Z,2.20
2022-07-27T04:02:44.789Z,2.30
2022-07-27T04:05:17.918Z,2.50
2022-07-27T04:08:12.552Z,2.20
2022-07-27T04:11:02.568Z,2.00
2022-07-27T04:13:48.772Z,2.00
2022-07-27T04:16:35.618Z,2.40
2022-07-27T04:19:49.461Z,2.20
2022-07-27T04:22:30.869Z,1.90
2022-07-27T04:25:21.053Z,1.90
2022-07-27T04:27:57.430Z,1.50
2022-07-27T04:34:37.499Z,1.80
2022-07-27T04:37:35.078Z,1.90
2022-07-27T04:40:26.802Z,1.60
2022-07-27T04:43:08.420Z,1.70
2022-07-27T04:45:44.433Z,1.50
2022-07-27T04:48:23.749Z,1.40
2022-07-27T04:51:17.461Z,1.90
2022-07-27T04:54:42.694Z,1.60
2022-07-27T04:57:42.679Z,1.30
2022-07-27T05:00:36.971Z,1.60
2022-07-27T05:03:35.710Z,1.50
2022-07-27T05:06:24.404Z,1.60
2022-07-27T05:09:36.610Z,1.50
2022-07-27T05:12:38.595Z,1.50
2022-07-27T05:15:13.304Z,1.50
2022-07-27T05:17:57.670Z,1.00
2022-07-27T05:21:24.209Z,1.30
2022-07-27T05:24:12.538Z,1.50
2022-07-27T05:27:19.930Z,1.40
2022-07-27T05:30:14.653Z,1.50
2022-07-27T05:33:04.230Z,1.80
2022-07-27T05:35:38.044Z,1.30
2022-07-27T05:38:32.727Z,1.20
2022-07-27T05:41:34.489Z,1.90
2022-07-27T05:44:42.986Z,1.10
2022-07-27T05:47:53.278Z,1.20
2022-07-27T05:51:00.426Z,1.10
2022-07-27T05:54:16.114Z,1.40
2022-07-27T05:57:57.613Z,1.30
2022-07-27T06:00:39.272Z,1.10
2022-07-27T06:03:59.839Z,1.10
2022-07-27T06:07:15.027Z,1.10
2022-07-27T06:09:52.593Z,1.00
2022-07-27T06:12:40.451Z,1.10
2022-07-27T06:15:23.175Z,1.20
2022-07-27T06:17:55.095Z,1.50
2022-07-27T06:20:38.144Z,1.20
2022-07-27T06:23:32.613Z,1.80
2022-07-27T06:26:09.439Z,1.20
2022-07-27T06:28:58.643Z,1.00
2022-07-27T06:31:47.452Z,1.20
2022-07-27T06:34:38.389Z,1.80
2022-07-27T06:37:41.158Z,1.40
2022-07-27T06:40:32.474Z,1.70
2022-07-27T06:43:10.757Z,4.00
2022-07-27T06:45:47.996Z,1.70
2022-07-27T06:48:33.631Z,1.40
2022-07-27T06:51:30.782Z,1.70
2022-07-27T06:54:05.104Z,1.10
2022-07-27T06:57:09.371Z,1.40
2022-07-27T06:59:53.669Z,1.20
2022-07-27T07:02:35.248Z,1.30
2022-07-27T07:05:25.518Z,0.80
2022-07-27T07:08:18.534Z,1.20
2022-07-27T07:10:57.300Z,1.00
2022-07-27T07:13:38.452Z,1.30
2022-07-27T07:16:09.406Z,1.30
2022-07-27T07:18:52.033Z,1.20
2022-07-27T07:21:54.159Z,1.50
2022-07-27T07:24:26.316Z,1.70
2022-07-27T07:27:13.032Z,1.90
2022-07-27T07:29:46.592Z,1.40
2022-07-27T07:32:28.901Z,2.10
2022-07-27T07:35:18.100Z,1.80
2022-07-27T07:38:08.434Z,2.60
2022-07-27T07:41:00.636Z,1.80
2022-07-27T07:43:36.741Z,3.30
2022-07-27T07:46:14.700Z,1.80
2022-07-27T07:48:58.769Z,2.60
2022-07-27T07:51:33.028Z,1.90
2022-07-27T07:54:03.600Z,2.40
2022-07-27T07:59:24.123Z,1.90
2022-07-27T08:02:09.814Z,2.00
2022-07-27T08:04:39.475Z,2.50
2022-07-27T08:07:25.736Z,2.10
2022-07-27T08:10:03.764Z,2.00
2022-07-27T08:12:44.133Z,2.20
2022-07-27T08:15:34.929Z,1.80
2022-07-27T08:18:09.795Z,2.30
2022-07-27T08:20:59.725Z,2.20
2022-07-27T08:23:43.933Z,2.40
2022-07-27T08:26:14.868Z,1.90
2022-07-27T08:28:59.290Z,2.90
2022-07-27T08:31:52.081Z,2.10
2022-07-27T08:34:26.736Z,1.80
2022-07-27T08:37:04.204Z,2.10
2022-07-27T08:42:51.139Z,1.70
2022-07-27T08:45:30.765Z,1.80
2022-07-27T08:48:15.643Z,2.00
2022-07-27T08:51:00.244Z,1.80
2022-07-27T08:53:53.554Z,1.60
2022-07-27T08:56:43.945Z,1.60
2022-07-27T08:59:16.957Z,1.70
2022-07-27T09:02:16.637Z,1.70
2022-07-27T09:05:09.618Z,2.10
2022-07-27T09:08:15.404Z,1.80
2022-07-27T09:10:56.425Z,1.60
2022-07-27T09:20:25.903Z,1.70
2022-07-27T09:23:15.666Z,1.60
2022-07-27T09:26:20.478Z,1.70
2022-07-27T09:29:17.569Z,1.50
2022-07-27T09:31:52.635Z,1.60
2022-07-27T09:34:33.183Z,1.70
2022-07-27T09:39:50.986Z,1.80
2022-07-27T09:43:05.602Z,1.90
2022-07-27T09:45:35.485Z,1.60
2022-07-27T09:48:20.503Z,1.40
2022-07-27T09:51:37.453Z,1.30
2022-07-27T09:54:09.593Z,1.50
2022-07-27T09:56:37.608Z,2.00
2022-07-27T09:59:28.075Z,1.70
2022-07-27T10:01:58.707Z,1.60
2022-07-27T10:04:36.147Z,1.60
2022-07-27T10:07:14.932Z,1.60
2022-07-27T10:09:46.910Z,1.50
2022-07-27T10:12:16.809Z,1.60
2022-07-27T10:14:56.655Z,1.50
2022-07-27T10:17:29.744Z,1.40
2022-07-27T10:20:08.386Z,1.70
2022-07-27T10:22:55.436Z,1.70
2022-07-27T10:25:37.226Z,1.70
2022-07-27T10:28:17.371Z,1.60
2022-07-27T10:31:18.374Z,1.50
2022-07-27T10:33:52.178Z,1.60
2022-07-27T10:36:30.292Z,1.50
2022-07-27T10:39:10.801Z,1.70
2022-07-27T10:41:47.732Z,1.60
2022-07-27T10:44:18.697Z,1.60
2022-07-27T10:47:02.594Z,1.50
2022-07-27T10:49:40.605Z,1.80
2022-07-27T10:52:46.574Z,1.80
2022-07-27T10:56:18.277Z,1.80
2022-07-27T10:58:57.761Z,1.70
2022-07-27T11:01:41.684Z,2.00
2022-07-27T11:04:15.258Z,1.70
2022-07-27T11:10:07.750Z,2.00
2022-07-27T11:13:09.995Z,2.40
2022-07-27T11:16:23.485Z,2.10
2022-07-27T11:19:34.723Z,2.50
2022-07-27T11:25:42.880Z,2.40
2022-07-27T11:28:30.350Z,2.80
2022-07-27T11:31:52.674Z,2.50
2022-07-27T11:34:38.242Z,2.00
2022-07-27T11:37:30.990Z,2.00
2022-07-27T11:40:56.401Z,2.00
2022-07-27T11:43:46.038Z,1.50
2022-07-27T11:46:35.435Z,1.60
2022-07-27T11:49:35.346Z,1.90
2022-07-27T11:52:29.867Z,1.30
2022-07-27T11:55:13.659Z,1.70
2022-07-27T11:58:01.592Z,1.30
2022-07-27T12:00:42.140Z,1.80
2022-07-27T12:03:45.744Z,1.60
2022-07-27T12:06:34.271Z,1.30
2022-07-27T12:09:13.984Z,1.60
2022-07-27T12:11:55.319Z,1.50
2022-07-27T12:14:46.429Z,1.60
2022-07-27T12:17:43.155Z,1.30
2022-07-27T12:20:23.384Z,1.30
2022-07-27T12:23:12.958Z,1.30
2022-07-27T12:26:30.129Z,1.20
2022-07-27T12:29:12.444Z,1.20
2022-07-27T12:32:03.320Z,1.30
2022-07-27T12:34:54.523Z,1.10
2022-07-27T12:37:33.131Z,1.20
2022-07-27T12:40:20.411Z,1.20
2022-07-27T12:43:00.171Z,1.30
2022-07-27T12:45:47.421Z,1.40
2022-07-27T12:48:31.523Z,0.90
2022-07-27T12:51:10.838Z,1.40
2022-07-27T12:54:14.252Z,1.20
2022-07-27T12:56:44.991Z,1.10
2022-07-27T12:59:24.116Z,1.30
2022-07-27T13:01:57.394Z,1.10
2022-07-27T13:04:55.835Z,1.40
2022-07-27T13:07:43.164Z,1.60
2022-07-27T13:10:38.864Z,1.20
2022-07-27T13:13:09.358Z,1.30
2022-07-27T13:15:40.109Z,1.30
2022-07-27T13:18:15.959Z,1.60
2022-07-27T13:20:48.174Z,1.40
2022-07-27T13:23:33.129Z,1.10
2022-07-27T13:26:06.322Z,1.20
2022-07-27T13:28:48.100Z,1.80
2022-07-27T13:31:26.139Z,1.40
2022-07-27T13:33:57.027Z,1.20
2022-07-27T13:36:47.446Z,1.10
2022-07-27T13:42:17.858Z,1.30
2022-07-27T13:45:08.669Z,1.20
2022-07-27T13:48:04.166Z,1.20
2022-07-27T13:50:49.216Z,1.20
2022-07-27T13:53:37.220Z,1.00
2022-07-27T13:56:23.780Z,1.30
2022-07-27T13:59:17.183Z,1.50
2022-07-27T14:01:45.819Z,1.30
2022-07-27T14:04:29.890Z,1.20
2022-07-27T14:07:07.369Z,1.40
2022-07-27T14:10:01.083Z,1.20
2022-07-27T14:12:58.368Z,1.40
2022-07-27T14:15:53.909Z,1.30
2022-07-27T14:21:15.864Z,1.40
2022-07-27T14:23:49.892Z,1.50
2022-07-27T14:26:27.139Z,1.40
2022-07-27T14:29:05.479Z,1.60
2022-07-27T14:31:55.733Z,1.30
2022-07-27T14:34:36.897Z,1.00
2022-07-27T14:37:09.041Z,1.40
2022-07-27T14:39:47.989Z,1.00
2022-07-27T14:42:24.436Z,1.10
2022-07-27T14:45:03.589Z,3.60
2022-07-27T14:47:41.340Z,1.50
2022-07-27T14:50:12.204Z,1.40
2022-07-27T14:52:55.110Z,1.40
2022-07-27T14:55:33.572Z,1.10
2022-07-27T14:58:20.237Z,1.10
2022-07-27T15:01:03.155Z,1.60
2022-07-27T15:03:52.305Z,1.60
2022-07-27T15:06:45.663Z,1.10
2022-07-27T15:09:30.055Z,1.50
2022-07-27T15:12:16.376Z,1.30
2022-07-27T15:15:05.843Z,2.20
2022-07-27T15:21:13.062Z,1.30
2022-07-27T15:23:43.283Z,1.70
2022-07-27T15:26:20.526Z,1.10
2022-07-27T15:28:53.097Z,1.90
2022-07-27T15:31:21.716Z,1.70
2022-07-27T15:34:15.454Z,1.80
2022-07-27T15:37:10.090Z,1.50
2022-07-27T15:39:46.442Z,1.20
2022-07-27T15:42:33.667Z,1.10
2022-07-27T15:45:05.045Z,1.40
2022-07-27T15:47:32.753Z,1.50
2022-07-27T15:50:32.072Z,1.40
2022-07-27T15:53:06.947Z,1.50
2022-07-27T15:55:47.467Z,1.40
2022-07-27T15:58:19.821Z,1.40
2022-07-27T16:01:12.364Z,1.40
2022-07-27T16:03:54.013Z,1.50
2022-07-27T16:06:36.780Z,1.40
2022-07-27T16:09:12.070Z,1.30
2022-07-27T16:11:42.009Z,1.40
2022-07-27T16:14:30.180Z,1.10
2022-07-27T16:17:10.686Z,1.40
2022-07-27T16:19:47.834Z,1.30
2022-07-27T16:22:31.810Z,1.40
2022-07-27T16:25:01.881Z,1.40
2022-07-27T16:27:58.067Z,1.20
2022-07-27T16:30:52.252Z,1.20
2022-07-27T16:33:58.349Z,1.40
2022-07-27T16:36:39.261Z,1.20
2022-07-27T16:39:15.070Z,1.20
2022-07-27T16:41:58.305Z,1.30
2022-07-27T16:44:42.839Z,1.10
2022-07-27T16:47:28.289Z,1.40
2022-07-27T16:50:02.829Z,1.40
2022-07-27T16:52:50.378Z,1.50
2022-07-27T16:55:38.778Z,1.40
2022-07-27T16:58:16.984Z,1.70
2022-07-27T17:01:04.406Z,1.70
2022-07-27T17:03:51.417Z,1.40
2022-07-27T17:09:22.950Z,2.10
2022-07-27T17:12:11.681Z,1.60
2022-07-27T17:15:00.277Z,1.30
2022-07-27T17:17:48.401Z,1.30
2022-07-27T17:20:35.388Z,1.30
2022-07-27T17:23:15.684Z,1.30
2022-07-27T17:25:55.135Z,1.20
2022-07-27T17:28:36.390Z,1.00
2022-07-27T17:31:22.211Z,1.40
2022-07-27T17:33:52.499Z,1.40
2022-07-27T17:36:39.344Z,2.00
2022-07-27T17:39:40.605Z,2.10
2022-07-27T17:42:23.616Z,1.50
2022-07-27T17:44:55.256Z,1.30
2022-07-27T17:47:58.755Z,1.40
2022-07-27T17:50:53.240Z,1.80
2022-07-27T17:53:33.079Z,1.80
2022-07-27T17:56:13.861Z,2.30
2022-07-27T17:58:53.807Z,2.00
2022-07-27T18:01:46.394Z,2.20
2022-07-27T18:04:16.021Z,2.00
2022-07-27T18:06:57.100Z,1.70
2022-07-27T18:09:44.245Z,1.60
2022-07-27T18:12:23.991Z,1.60
2022-07-27T18:15:10.588Z,1.80
2022-07-27T18:18:09.643Z,1.50
2022-07-27T18:21:06.627Z,1.80
2022-07-27T18:23:53.297Z,1.90
2022-07-27T18:26:30.309Z,1.70
2022-07-27T18:29:14.653Z,2.00
2022-07-27T18:31:57.899Z,1.90
2022-07-27T18:34:43.609Z,1.60
2022-07-27T18:37:30.596Z,2.30
2022-07-27T18:40:12.090Z,1.60
2022-07-27T18:42:57.468Z,2.00
2022-07-27T18:45:52.868Z,1.90
2022-07-27T18:48:34.674Z,1.70
2022-07-27T18:51:29.873Z,2.00
2022-07-27T18:54:42.221Z,1.90
2022-07-27T18:57:20.213Z,2.50
2022-07-27T19:00:08.600Z,2.70
2022-07-27T19:02:57.941Z,2.70
2022-07-27T19:05:40.917Z,2.50
2022-07-27T19:08:33.176Z,2.60
2022-07-27T19:11:04.539Z,2.40
2022-07-27T19:13:35.868Z,2.90
2022-07-27T19:16:30.017Z,2.20
2022-07-27T19:19:12.006Z,2.50
2022-07-27T19:21:54.072Z,2.60
2022-07-27T19:24:54.359Z,3.40
2022-07-27T19:30:34.578Z,2.40
2022-07-27T19:33:30.905Z,3.00
2022-07-27T19:36:05.732Z,2.50
2022-07-27T19:38:50.881Z,2.90
2022-07-27T19:41:27.567Z,2.50
2022-07-27T19:44:16.794Z,2.80
2022-07-27T19:47:01.814Z,2.80
2022-07-27T19:49:39.690Z,3.00
2022-07-27T19:52:20.092Z,2.50
2022-07-27T19:55:01.874Z,2.90
2022-07-27T19:57:57.242Z,2.60
2022-07-27T20:00:28.771Z,2.50
2022-07-27T20:03:14.341Z,2.70
2022-07-27T20:05:48.507Z,2.80
2022-07-27T20:08:29.178Z,2.60
2022-07-27T20:11:09.253Z,2.40
2022-07-27T20:14:09.450Z,2.70
2022-07-27T20:16:51.714Z,2.80
2022-07-27T20:19:34.224Z,3.30
2022-07-27T20:22:08.700Z,2.60
2022-07-27T20:24:37.928Z,3.40
2022-07-27T20:27:29.131Z,3.20
2022-07-27T20:30:04.793Z,3.30
2022-07-27T20:32:55.402Z,3.30
2022-07-27T20:35:41.879Z,3.20
2022-07-27T20:38:31.666Z,3.60
2022-07-27T20:41:19.789Z,3.60
2022-07-27T20:43:59.785Z,3.30
2022-07-27T20:46:51.376Z,3.40
2022-07-27T20:49:31.848Z,3.70
2022-07-27T20:52:16.940Z,3.30
2022-07-27T20:55:25.120Z,3.60
2022-07-27T20:58:16.047Z,3.10
2022-07-27T21:01:10.587Z,2.60
2022-07-27T21:03:59.920Z,2.70
2022-07-27T21:06:45.772Z,2.30
2022-07-27T21:09:14.705Z,2.50
2022-07-27T21:11:52.866Z,2.40
2022-07-27T21:14:30.122Z,1.90
2022-07-27T21:17:06.070Z,2.00
2022-07-27T21:20:07.118Z,2.00
2022-07-27T21:23:05.484Z,2.20
2022-07-27T21:25:36.547Z,2.10
2022-07-27T21:28:06.552Z,2.00
2022-07-27T21:31:06.910Z,1.90
2022-07-27T21:33:54.132Z,1.80
2022-07-27T21:36:30.051Z,1.80
2022-07-27T21:39:08.565Z,1.80
2022-07-27T21:42:01.474Z,1.70
2022-07-27T21:44:49.606Z,1.60
2022-07-27T21:47:46.455Z,2.10
2022-07-27T21:50:29.329Z,1.90
2022-07-27T21:53:25.419Z,1.70
2022-07-27T21:56:20.009Z,1.60
2022-07-27T21:59:04.842Z,1.90
2022-07-27T22:02:08.311Z,1.70
2022-07-27T22:04:59.764Z,1.90
2022-07-27T22:07:35.470Z,1.80
2022-07-27T22:10:36.325Z,1.60
2022-07-27T22:16:28.901Z,1.50
2022-07-27T22:19:05.362Z,1.80
2022-07-27T22:22:01.151Z,1.60
2022-07-27T22:24:36.862Z,2.40
2022-07-27T22:27:18.346Z,1.90
2022-07-27T22:30:02.812Z,1.80
2022-07-27T22:33:16.101Z,1.70
2022-07-27T22:36:16.666Z,1.80
2022-07-27T22:38:57.335Z,1.70
2022-07-27T22:44:24.051Z,2.40
2022-07-27T22:47:24.129Z,1.60
2022-07-27T22:49:58.904Z,1.40
2022-07-27T22:52:47.349Z,1.70
2022-07-27T22:55:43.418Z,1.60
2022-07-27T22:58:26.639Z,1.80
2022-07-27T23:01:01.038Z,1.80
2022-07-27T23:04:02.556Z,1.60
2022-07-27T23:06:54.101Z,1.70
2022-07-27T23:09:51.475Z,1.80
2022-07-27T23:12:26.946Z,2.20
2022-07-27T23:15:36.751Z,2.10
2022-07-27T23:18:28.604Z,1.90
2022-07-27T23:21:10.276Z,1.90
2022-07-27T23:23:53.486Z,1.70
2022-07-27T23:26:37.038Z,1.80
2022-07-27T23:29:40.630Z,2.20
2022-07-27T23:32:37.901Z,1.90
2022-07-27T23:35:25.106Z,2.20
2022-07-27T23:38:01.270Z,2.20
2022-07-27T23:40:30.636Z,1.90
2022-07-27T23:43:21.720Z,1.90
2022-07-27T23:46:02.292Z,2.80
2022-07-27T23:51:21.230Z,2.20
2022-07-27T23:54:09.483Z,2.40
2022-07-27T23:56:42.608Z,2.40
2022-07-27T23:59:13.095Z,2.20
